sensor_id;sensor_type;location;lat;lon;timestamp;temperature;humidity
4054;DHT22;2042;47.956;9.222;2023-03-01T00:02:11;-1.50;1.00
4054;DHT22;2042;47.956;9.222;2023-03-01T00:04:37;-1.40;1.00
4054;DHT22;2042;47.956;9.222;2023-03-01T00:07:03;-1.40;1.00
4054;DHT22;2042;47.956;9.222;2023-03-01T00:09:28;-1.40;1.00
4054;DHT22;2042;47.956;9.222;2023-03-01T00:11:54;-1.40;1.00
4054;DHT22;2042;47.956;9.222;2023-03-01T00:14:19;-1.40;1.00
4054;DHT22;2042;47.956;9.222;2023-03-01T00:16:46;-1.40;1.00
4054;DHT22;2042;47.956;9.222;2023-03-01T00:19:15;-1.30;1.00
4054;DHT22;2042;47.956;9.222;2023-03-01T00:21:42;-1.30;1.00
4054;DHT22;2042;47.956;9.222;2023-03-01T00:24:08;-1.30;1.00
4054;DHT22;2042;47.956;9.222;2023-03-01T00:26:34;-1.30;1.00
4054;DHT22;2042;47.956;9.222;2023-03-01T00:29:00;-1.30;1.00
4054;DHT22;2042;47.956;9.222;2023-03-01T00:31:28;-1.30;1.00
4054;DHT22;2042;47.956;9.222;2023-03-01T00:34:00;-1.30;1.00
4054;DHT22;2042;47.956;9.222;2023-03-01T00:36:29;-1.30;1.00
4054;DHT22;2042;47.956;9.222;2023-03-01T00:38:55;-1.30;1.00
4054;DHT22;2042;47.956;9.222;2023-03-01T00:41:21;-1.30;1.00
4054;DHT22;2042;47.956;9.222;2023-03-01T00:43:52;-1.30;1.00
4054;DHT22;2042;47.956;9.222;2023-03-01T00:46:20;-1.20;1.00
4054;DHT22;2042;47.956;9.222;2023-03-01T00:48:46;-1.20;1.00
4054;DHT22;2042;47.956;9.222;2023-03-01T00:51:14;-1.20;1.00
4054;DHT22;2042;47.956;9.222;2023-03-01T00:53:40;-1.20;1.00
4054;DHT22;2042;47.956;9.222;2023-03-01T00:56:09;-1.20;1.00
4054;DHT22;2042;47.956;9.222;2023-03-01T00:58:35;-1.20;1.00
4054;DHT22;2042;47.956;9.222;2023-03-01T01:01:06;-1.20;1.00
4054;DHT22;2042;47.956;9.222;2023-03-01T01:03:32;-1.20;1.00
4054;DHT22;2042;47.956;9.222;2023-03-01T01:05:57;-1.20;1.00
4054;DHT22;2042;47.956;9.222;2023-03-01T01:08:23;-1.20;1.00
4054;DHT22;2042;47.956;9.222;2023-03-01T01:10:49;-1.10;1.00
4054;DHT22;2042;47.956;9.222;2023-03-01T01:13:14;-1.10;1.00
4054;DHT22;2042;47.956;9.222;2023-03-01T01:15:40;-1.10;1.00
4054;DHT22;2042;47.956;9.222;2023-03-01T01:18:06;-1.10;1.00
4054;DHT22;2042;47.956;9.222;2023-03-01T01:20:32;-1.00;1.00
4054;DHT22;2042;47.956;9.222;2023-03-01T01:22:58;-1.00;1.00
4054;DHT22;2042;47.956;9.222;2023-03-01T01:25:23;-1.10;1.00
4054;DHT22;2042;47.956;9.222;2023-03-01T01:27:51;-1.10;1.00
4054;DHT22;2042;47.956;9.222;2023-03-01T01:30:16;-1.10;1.00
4054;DHT22;2042;47.956;9.222;2023-03-01T01:32:42;-1.10;1.00
4054;DHT22;2042;47.956;9.222;2023-03-01T01:35:08;-1.10;1.00
4054;DHT22;2042;47.956;9.222;2023-03-01T01:37:34;-1.20;1.00
4054;DHT22;2042;47.956;9.222;2023-03-01T01:40:00;-1.10;1.00
4054;DHT22;2042;47.956;9.222;2023-03-01T01:42:29;-1.10;1.00
4054;DHT22;2042;47.956;9.222;2023-03-01T01:47:49;-1.10;1.00
4054;DHT22;2042;47.956;9.222;2023-03-01T01:50:17;-1.10;1.00
4054;DHT22;2042;47.956;9.222;2023-03-01T01:52:44;-1.20;1.00
4054;DHT22;2042;47.956;9.222;2023-03-01T01:55:15;-1.20;1.00
4054;DHT22;2042;47.956;9.222;2023-03-01T01:57:47;-1.20;1.00
4054;DHT22;2042;47.956;9.222;2023-03-01T02:00:21;-1.20;1.00
4054;DHT22;2042;47.956;9.222;2023-03-01T02:02:49;-1.20;1.00
4054;DHT22;2042;47.956;9.222;2023-03-01T02:08:04;-1.20;1.00
4054;DHT22;2042;47.956;9.222;2023-03-01T02:10:33;-1.20;1.00
4054;DHT22;2042;47.956;9.222;2023-03-01T02:13:00;-1.20;1.00
4054;DHT22;2042;47.956;9.222;2023-03-01T02:15:26;-1.20;1.00
4054;DHT22;2042;47.956;9.222;2023-03-01T02:17:52;-1.20;1.00
4054;DHT22;2042;47.956;9.222;2023-03-01T02:23:07;-1.20;1.00
4054;DHT22;2042;47.956;9.222;2023-03-01T02:26:08;-1.10;1.00
4054;DHT22;2042;47.956;9.222;2023-03-01T02:28:38;-1.20;1.00
4054;DHT22;2042;47.956;9.222;2023-03-01T02:31:07;-1.20;1.00
4054;DHT22;2042;47.956;9.222;2023-03-01T02:33:53;-1.10;1.00
4054;DHT22;2042;47.956;9.222;2023-03-01T02:36:24;-1.30;1.00
4054;DHT22;2042;47.956;9.222;2023-03-01T02:38:54;-1.10;1.00
4054;DHT22;2042;47.956;9.222;2023-03-01T02:41:22;-1.30;1.00
4054;DHT22;2042;47.956;9.222;2023-03-01T02:43:49;-1.30;1.00
4054;DHT22;2042;47.956;9.222;2023-03-01T02:46:17;-1.30;1.00
4054;DHT22;2042;47.956;9.222;2023-03-01T02:48:49;-1.30;1.00
4054;DHT22;2042;47.956;9.222;2023-03-01T02:54:28;-1.10;1.00
4054;DHT22;2042;47.956;9.222;2023-03-01T02:56:56;-1.20;1.00
4054;DHT22;2042;47.956;9.222;2023-03-01T02:59:26;-1.30;1.00
4054;DHT22;2042;47.956;9.222;2023-03-01T03:01:54;-1.20;1.00
4054;DHT22;2042;47.956;9.222;2023-03-01T03:04:20;-1.30;1.00
4054;DHT22;2042;47.956;9.222;2023-03-01T03:06:48;-1.30;1.00
4054;DHT22;2042;47.956;9.222;2023-03-01T03:09:15;-1.30;1.00
4054;DHT22;2042;47.956;9.222;2023-03-01T03:11:41;-1.30;1.00
4054;DHT22;2042;47.956;9.222;2023-03-01T03:14:12;-1.30;1.00
4054;DHT22;2042;47.956;9.222;2023-03-01T03:16:42;-1.30;1.00
4054;DHT22;2042;47.956;9.222;2023-03-01T03:19:09;-1.30;1.00
4054;DHT22;2042;47.956;9.222;2023-03-01T03:21:35;-1.30;1.00
4054;DHT22;2042;47.956;9.222;2023-03-01T03:24:01;-1.30;1.00
4054;DHT22;2042;47.956;9.222;2023-03-01T03:26:27;-1.30;1.00
4054;DHT22;2042;47.956;9.222;2023-03-01T03:28:52;-1.20;1.00
4054;DHT22;2042;47.956;9.222;2023-03-01T03:31:18;-1.30;1.00
4054;DHT22;2042;47.956;9.222;2023-03-01T03:33:44;-1.20;1.00
4054;DHT22;2042;47.956;9.222;2023-03-01T03:36:09;-1.30;1.00
4054;DHT22;2042;47.956;9.222;2023-03-01T03:38:40;-1.20;1.00
4054;DHT22;2042;47.956;9.222;2023-03-01T03:41:07;-1.20;1.00
4054;DHT22;2042;47.956;9.222;2023-03-01T03:43:36;-1.20;1.00
4054;DHT22;2042;47.956;9.222;2023-03-01T03:46:03;-1.20;1.00
4054;DHT22;2042;47.956;9.222;2023-03-01T03:48:38;-1.20;1.00
4054;DHT22;2042;47.956;9.222;2023-03-01T03:51:04;-1.20;1.00
4054;DHT22;2042;47.956;9.222;2023-03-01T03:53:33;-1.20;1.00
4054;DHT22;2042;47.956;9.222;2023-03-01T03:55:59;-1.20;1.00
4054;DHT22;2042;47.956;9.222;2023-03-01T03:58:25;-1.10;1.00
4054;DHT22;2042;47.956;9.222;2023-03-01T04:00:54;-1.20;1.00
4054;DHT22;2042;47.956;9.222;2023-03-01T04:03:22;-1.10;1.00
4054;DHT22;2042;47.956;9.222;2023-03-01T04:05:48;-1.10;1.00
4054;DHT22;2042;47.956;9.222;2023-03-01T04:08:17;-1.10;1.00
4054;DHT22;2042;47.956;9.222;2023-03-01T04:10:47;-1.10;1.00
4054;DHT22;2042;47.956;9.222;2023-03-01T04:13:18;-1.10;1.00
4054;DHT22;2042;47.956;9.222;2023-03-01T04:15:54;-1.10;1.00
4054;DHT22;2042;47.956;9.222;2023-03-01T04:18:21;-1.10;1.00
4054;DHT22;2042;47.956;9.222;2023-03-01T04:20:47;-1.10;1.00
4054;DHT22;2042;47.956;9.222;2023-03-01T04:23:18;-1.20;1.00
4054;DHT22;2042;47.956;9.222;2023-03-01T04:25:51;-1.20;1.00
4054;DHT22;2042;47.956;9.222;2023-03-01T04:28:30;-1.10;1.00
4054;DHT22;2042;47.956;9.222;2023-03-01T04:30:58;-1.10;1.00
4054;DHT22;2042;47.956;9.222;2023-03-01T04:33:24;-1.10;1.00
4054;DHT22;2042;47.956;9.222;2023-03-01T04:35:50;-1.10;1.00
4054;DHT22;2042;47.956;9.222;2023-03-01T04:38:17;-1.10;1.00
4054;DHT22;2042;47.956;9.222;2023-03-01T04:40:42;-1.10;1.00
4054;DHT22;2042;47.956;9.222;2023-03-01T04:43:09;-1.10;1.00
4054;DHT22;2042;47.956;9.222;2023-03-01T04:45:35;-1.10;1.00
4054;DHT22;2042;47.956;9.222;2023-03-01T04:48:01;-1.10;1.00
4054;DHT22;2042;47.956;9.222;2023-03-01T04:50:27;-1.10;1.00
4054;DHT22;2042;47.956;9.222;2023-03-01T04:52:53;-1.10;1.00
4054;DHT22;2042;47.956;9.222;2023-03-01T04:55:19;-1.10;1.00
4054;DHT22;2042;47.956;9.222;2023-03-01T04:57:45;-1.10;1.00
4054;DHT22;2042;47.956;9.222;2023-03-01T05:00:12;-1.10;1.00
4054;DHT22;2042;47.956;9.222;2023-03-01T05:05:23;-1.10;1.00
4054;DHT22;2042;47.956;9.222;2023-03-01T05:07:51;-1.10;1.00
4054;DHT22;2042;47.956;9.222;2023-03-01T05:10:17;-1.10;1.00
4054;DHT22;2042;47.956;9.222;2023-03-01T05:12:43;-1.10;1.00
4054;DHT22;2042;47.956;9.222;2023-03-01T05:15:09;-1.10;1.00
4054;DHT22;2042;47.956;9.222;2023-03-01T05:17:35;-1.10;1.00
4054;DHT22;2042;47.956;9.222;2023-03-01T05:20:01;-1.10;1.00
4054;DHT22;2042;47.956;9.222;2023-03-01T05:22:31;-1.20;1.00
4054;DHT22;2042;47.956;9.222;2023-03-01T05:24:56;-1.10;1.00
4054;DHT22;2042;47.956;9.222;2023-03-01T05:27:22;-1.10;1.00
4054;DHT22;2042;47.956;9.222;2023-03-01T05:29:48;-1.20;1.00
4054;DHT22;2042;47.956;9.222;2023-03-01T05:32:13;-1.20;1.00
4054;DHT22;2042;47.956;9.222;2023-03-01T05:34:41;-1.10;1.00
4054;DHT22;2042;47.956;9.222;2023-03-01T05:37:07;-1.20;1.00
4054;DHT22;2042;47.956;9.222;2023-03-01T05:39:34;-1.20;1.00
4054;DHT22;2042;47.956;9.222;2023-03-01T05:42:00;-1.20;1.00
4054;DHT22;2042;47.956;9.222;2023-03-01T05:44:28;-1.10;1.00
4054;DHT22;2042;47.956;9.222;2023-03-01T05:46:54;-1.20;1.00
4054;DHT22;2042;47.956;9.222;2023-03-01T05:49:20;-1.20;1.00
4054;DHT22;2042;47.956;9.222;2023-03-01T05:51:50;-1.20;1.00
4054;DHT22;2042;47.956;9.222;2023-03-01T05:54:18;-1.20;1.00
4054;DHT22;2042;47.956;9.222;2023-03-01T05:56:44;-1.10;1.00
4054;DHT22;2042;47.956;9.222;2023-03-01T05:59:11;-1.20;1.00
4054;DHT22;2042;47.956;9.222;2023-03-01T06:01:37;-1.20;1.00
4054;DHT22;2042;47.956;9.222;2023-03-01T06:04:03;-1.20;1.00
4054;DHT22;2042;47.956;9.222;2023-03-01T06:06:29;-1.20;1.00
4054;DHT22;2042;47.956;9.222;2023-03-01T06:08:58;-1.20;1.00
4054;DHT22;2042;47.956;9.222;2023-03-01T06:11:24;-1.20;1.00
4054;DHT22;2042;47.956;9.222;2023-03-01T06:13:49;-1.20;1.00
4054;DHT22;2042;47.956;9.222;2023-03-01T06:16:15;-1.20;1.00
4054;DHT22;2042;47.956;9.222;2023-03-01T06:18:41;-1.20;1.00
4054;DHT22;2042;47.956;9.222;2023-03-01T06:21:08;-1.20;1.00
4054;DHT22;2042;47.956;9.222;2023-03-01T06:23:34;-1.20;1.00
4054;DHT22;2042;47.956;9.222;2023-03-01T06:26:04;-1.20;1.00
4054;DHT22;2042;47.956;9.222;2023-03-01T06:28:30;-1.20;1.00
4054;DHT22;2042;47.956;9.222;2023-03-01T06:30:55;-1.20;1.00
4054;DHT22;2042;47.956;9.222;2023-03-01T06:33:21;-1.20;1.00
4054;DHT22;2042;47.956;9.222;2023-03-01T06:35:50;-1.10;1.00
4054;DHT22;2042;47.956;9.222;2023-03-01T06:38:15;-1.10;1.00
4054;DHT22;2042;47.956;9.222;2023-03-01T06:40:44;-1.10;1.00
4054;DHT22;2042;47.956;9.222;2023-03-01T06:43:09;-1.20;1.00
4054;DHT22;2042;47.956;9.222;2023-03-01T06:45:36;-1.10;1.00
4054;DHT22;2042;47.956;9.222;2023-03-01T06:48:06;-1.10;1.00
4054;DHT22;2042;47.956;9.222;2023-03-01T06:50:33;-1.10;1.00
4054;DHT22;2042;47.956;9.222;2023-03-01T06:52:59;-1.10;1.00
4054;DHT22;2042;47.956;9.222;2023-03-01T06:55:25;-1.10;1.00
4054;DHT22;2042;47.956;9.222;2023-03-01T06:57:55;-1.10;1.00
4054;DHT22;2042;47.956;9.222;2023-03-01T07:00:22;-1.10;1.00
4054;DHT22;2042;47.956;9.222;2023-03-01T07:02:48;-1.10;1.00
4054;DHT22;2042;47.956;9.222;2023-03-01T07:05:14;-1.10;1.00
4054;DHT22;2042;47.956;9.222;2023-03-01T07:07:39;-1.10;1.00
4054;DHT22;2042;47.956;9.222;2023-03-01T07:10:05;-1.10;1.00
4054;DHT22;2042;47.956;9.222;2023-03-01T07:12:32;-1.00;1.00
4054;DHT22;2042;47.956;9.222;2023-03-01T07:14:58;-1.00;1.00
4054;DHT22;2042;47.956;9.222;2023-03-01T07:17:24;-1.00;1.00
4054;DHT22;2042;47.956;9.222;2023-03-01T07:19:49;-1.00;1.00
4054;DHT22;2042;47.956;9.222;2023-03-01T07:22:15;-0.90;1.00
4054;DHT22;2042;47.956;9.222;2023-03-01T07:24:41;-0.90;1.00
4054;DHT22;2042;47.956;9.222;2023-03-01T07:27:07;-0.90;1.00
4054;DHT22;2042;47.956;9.222;2023-03-01T07:29:33;-0.90;1.00
4054;DHT22;2042;47.956;9.222;2023-03-01T07:31:58;-0.90;1.00
4054;DHT22;2042;47.956;9.222;2023-03-01T14:21:07;3.40;1.00
4054;DHT22;2042;47.956;9.222;2023-03-01T14:23:33;3.40;1.00
4054;DHT22;2042;47.956;9.222;2023-03-01T14:26:01;3.50;1.00
4054;DHT22;2042;47.956;9.222;2023-03-01T14:28:29;3.50;1.00
4054;DHT22;2042;47.956;9.222;2023-03-01T14:31:00;3.60;1.00
4054;DHT22;2042;47.956;9.222;2023-03-01T14:33:33;3.70;1.00
4054;DHT22;2042;47.956;9.222;2023-03-01T14:36:11;3.80;1.00
4054;DHT22;2042;47.956;9.222;2023-03-01T14:38:43;3.80;1.00
4054;DHT22;2042;47.956;9.222;2023-03-01T14:42:26;3.50;1.00
4054;DHT22;2042;47.956;9.222;2023-03-01T14:44:55;3.50;1.00
4054;DHT22;2042;47.956;9.222;2023-03-01T14:47:33;3.70;1.00
4054;DHT22;2042;47.956;9.222;2023-03-01T14:50:09;4.00;1.00
4054;DHT22;2042;47.956;9.222;2023-03-01T14:52:42;4.20;1.00
4054;DHT22;2042;47.956;9.222;2023-03-01T14:55:26;4.30;1.00
4054;DHT22;2042;47.956;9.222;2023-03-01T14:57:53;4.30;1.00
4054;DHT22;2042;47.956;9.222;2023-03-01T15:00:25;4.10;1.00
4054;DHT22;2042;47.956;9.222;2023-03-01T15:02:55;4.00;1.00
4054;DHT22;2042;47.956;9.222;2023-03-01T15:05:31;3.90;1.00
4054;DHT22;2042;47.956;9.222;2023-03-01T15:08:00;3.80;1.00
4054;DHT22;2042;47.956;9.222;2023-03-01T15:10:29;3.60;1.00
4054;DHT22;2042;47.956;9.222;2023-03-01T15:12:56;3.60;1.00
4054;DHT22;2042;47.956;9.222;2023-03-01T15:15:34;3.60;1.00
4054;DHT22;2042;47.956;9.222;2023-03-01T15:18:03;3.40;1.00
4054;DHT22;2042;47.956;9.222;2023-03-01T15:20:30;3.40;1.00
4054;DHT22;2042;47.956;9.222;2023-03-01T15:23:00;3.30;1.00
4054;DHT22;2042;47.956;9.222;2023-03-01T15:25:29;3.20;1.00
4054;DHT22;2042;47.956;9.222;2023-03-01T15:27:57;3.20;1.00
4054;DHT22;2042;47.956;9.222;2023-03-01T15:30:27;3.10;1.00
4054;DHT22;2042;47.956;9.222;2023-03-01T15:33:26;3.10;1.00
4054;DHT22;2042;47.956;9.222;2023-03-01T15:36:56;3.00;1.00
4054;DHT22;2042;47.956;9.222;2023-03-01T15:38:53;3.00;1.00
4054;DHT22;2042;47.956;9.222;2023-03-01T15:41:47;3.20;1.00
4054;DHT22;2042;47.956;9.222;2023-03-01T15:44:25;3.40;1.00
4054;DHT22;2042;47.956;9.222;2023-03-01T15:46:52;3.40;1.00
4054;DHT22;2042;47.956;9.222;2023-03-01T15:49:40;3.40;1.00
4054;DHT22;2042;47.956;9.222;2023-03-01T15:52:17;3.30;1.00
4054;DHT22;2042;47.956;9.222;2023-03-01T15:54:45;3.20;1.00
4054;DHT22;2042;47.956;9.222;2023-03-01T15:57:14;3.10;1.00
4054;DHT22;2042;47.956;9.222;2023-03-01T15:59:41;2.90;1.00
4054;DHT22;2042;47.956;9.222;2023-03-01T16:02:10;2.80;1.00
4054;DHT22;2042;47.956;9.222;2023-03-01T16:04:39;2.60;1.00
4054;DHT22;2042;47.956;9.222;2023-03-01T16:07:05;2.40;1.00
4054;DHT22;2042;47.956;9.222;2023-03-01T16:09:31;2.20;1.00
4054;DHT22;2042;47.956;9.222;2023-03-01T16:11:57;2.10;1.00
4054;DHT22;2042;47.956;9.222;2023-03-01T16:14:24;2.10;1.00
4054;DHT22;2042;47.956;9.222;2023-03-01T16:16:50;2.10;1.00
4054;DHT22;2042;47.956;9.222;2023-03-01T16:19:16;2.00;1.00
4054;DHT22;2042;47.956;9.222;2023-03-01T16:21:42;2.00;1.00
4054;DHT22;2042;47.956;9.222;2023-03-01T16:24:09;2.00;1.00
4054;DHT22;2042;47.956;9.222;2023-03-01T16:26:37;2.00;1.00
4054;DHT22;2042;47.956;9.222;2023-03-01T16:29:04;1.90;1.00
4054;DHT22;2042;47.956;9.222;2023-03-01T16:31:30;1.90;1.00
4054;DHT22;2042;47.956;9.222;2023-03-01T16:33:58;1.80;1.00
4054;DHT22;2042;47.956;9.222;2023-03-01T16:36:26;1.80;1.00
4054;DHT22;2042;47.956;9.222;2023-03-01T16:38:55;1.80;1.00
4054;DHT22;2042;47.956;9.222;2023-03-01T16:41:22;1.80;1.00
4054;DHT22;2042;47.956;9.222;2023-03-01T16:43:49;1.70;1.00
4054;DHT22;2042;47.956;9.222;2023-03-01T16:46:18;1.80;1.00
4054;DHT22;2042;47.956;9.222;2023-03-01T16:48:45;1.60;1.00
4054;DHT22;2042;47.956;9.222;2023-03-01T16:51:12;1.60;1.00
4054;DHT22;2042;47.956;9.222;2023-03-01T16:53:39;1.50;1.00
4054;DHT22;2042;47.956;9.222;2023-03-01T16:56:07;1.40;1.00
4054;DHT22;2042;47.956;9.222;2023-03-01T16:58:34;1.30;1.00
4054;DHT22;2042;47.956;9.222;2023-03-01T17:01:12;1.30;1.00
4054;DHT22;2042;47.956;9.222;2023-03-01T17:03:39;1.20;1.00
4054;DHT22;2042;47.956;9.222;2023-03-01T17:06:10;1.10;1.00
4054;DHT22;2042;47.956;9.222;2023-03-01T17:08:38;1.10;1.00
4054;DHT22;2042;47.956;9.222;2023-03-01T17:11:13;1.10;1.00
4054;DHT22;2042;47.956;9.222;2023-03-01T17:13:40;1.10;1.00
4054;DHT22;2042;47.956;9.222;2023-03-01T17:16:09;1.10;1.00
4054;DHT22;2042;47.956;9.222;2023-03-01T17:18:35;1.10;1.00
4054;DHT22;2042;47.956;9.222;2023-03-01T17:21:01;1.00;1.00
4054;DHT22;2042;47.956;9.222;2023-03-01T17:23:28;1.00;1.00
4054;DHT22;2042;47.956;9.222;2023-03-01T17:25:55;0.90;1.00
4054;DHT22;2042;47.956;9.222;2023-03-01T17:28:28;0.90;1.00
4054;DHT22;2042;47.956;9.222;2023-03-01T17:30:54;0.90;1.00
4054;DHT22;2042;47.956;9.222;2023-03-01T17:33:21;0.90;1.00
4054;DHT22;2042;47.956;9.222;2023-03-01T17:35:47;0.90;1.00
4054;DHT22;2042;47.956;9.222;2023-03-01T17:38:16;0.90;1.00
4054;DHT22;2042;47.956;9.222;2023-03-01T17:40:43;0.90;1.00
4054;DHT22;2042;47.956;9.222;2023-03-01T17:43:12;0.90;1.00
4054;DHT22;2042;47.956;9.222;2023-03-01T17:45:39;0.90;1.00
4054;DHT22;2042;47.956;9.222;2023-03-01T17:48:06;0.90;1.00
4054;DHT22;2042;47.956;9.222;2023-03-01T17:50:32;0.80;1.00
4054;DHT22;2042;47.956;9.222;2023-03-01T17:52:58;0.80;1.00
4054;DHT22;2042;47.956;9.222;2023-03-01T17:55:24;0.80;1.00
4054;DHT22;2042;47.956;9.222;2023-03-01T17:57:50;0.80;1.00
4054;DHT22;2042;47.956;9.222;2023-03-01T18:00:17;0.70;1.00
4054;DHT22;2042;47.956;9.222;2023-03-01T18:02:43;0.80;1.00
4054;DHT22;2042;47.956;9.222;2023-03-01T18:05:10;0.70;1.00
4054;DHT22;2042;47.956;9.222;2023-03-01T18:07:35;0.70;1.00
4054;DHT22;2042;47.956;9.222;2023-03-01T18:10:02;0.70;1.00
4054;DHT22;2042;47.956;9.222;2023-03-01T18:12:27;0.70;1.00
4054;DHT22;2042;47.956;9.222;2023-03-01T18:14:53;0.70;1.00
4054;DHT22;2042;47.956;9.222;2023-03-01T18:17:20;0.70;1.00
4054;DHT22;2042;47.956;9.222;2023-03-01T18:19:46;0.70;1.00
4054;DHT22;2042;47.956;9.222;2023-03-01T18:22:12;0.70;1.00
4054;DHT22;2042;47.956;9.222;2023-03-01T18:24:39;0.70;1.00
4054;DHT22;2042;47.956;9.222;2023-03-01T18:27:04;0.70;1.00
4054;DHT22;2042;47.956;9.222;2023-03-01T18:29:31;0.60;1.00
4054;DHT22;2042;47.956;9.222;2023-03-01T18:31:57;0.60;1.00
4054;DHT22;2042;47.956;9.222;2023-03-01T18:34:23;0.60;1.00
4054;DHT22;2042;47.956;9.222;2023-03-01T18:36:49;0.60;1.00
4054;DHT22;2042;47.956;9.222;2023-03-01T18:39:20;0.60;1.00
4054;DHT22;2042;47.956;9.222;2023-03-01T18:41:46;0.60;1.00
4054;DHT22;2042;47.956;9.222;2023-03-01T18:44:11;0.70;1.00
4054;DHT22;2042;47.956;9.222;2023-03-01T18:46:37;0.70;1.00
4054;DHT22;2042;47.956;9.222;2023-03-01T18:49:05;0.70;1.00
4054;DHT22;2042;47.956;9.222;2023-03-01T18:51:31;0.70;1.00
4054;DHT22;2042;47.956;9.222;2023-03-01T18:53:57;0.70;1.00
4054;DHT22;2042;47.956;9.222;2023-03-01T18:56:24;0.70;1.00
4054;DHT22;2042;47.956;9.222;2023-03-01T18:58:50;0.70;1.00
4054;DHT22;2042;47.956;9.222;2023-03-01T19:01:18;0.70;1.00
4054;DHT22;2042;47.956;9.222;2023-03-01T19:03:44;0.70;1.00
4054;DHT22;2042;47.956;9.222;2023-03-01T19:06:10;0.70;1.00
4054;DHT22;2042;47.956;9.222;2023-03-01T19:08:36;0.60;1.00
4054;DHT22;2042;47.956;9.222;2023-03-01T19:11:03;0.70;1.00
4054;DHT22;2042;47.956;9.222;2023-03-01T19:13:33;0.70;1.00
4054;DHT22;2042;47.956;9.222;2023-03-01T19:16:10;0.70;1.00
4054;DHT22;2042;47.956;9.222;2023-03-01T19:18:38;0.70;1.00
4054;DHT22;2042;47.956;9.222;2023-03-01T19:21:07;0.70;1.00
4054;DHT22;2042;47.956;9.222;2023-03-01T19:23:36;0.70;1.00
4054;DHT22;2042;47.956;9.222;2023-03-01T19:26:11;0.70;1.00
4054;DHT22;2042;47.956;9.222;2023-03-01T19:28:37;0.70;1.00
4054;DHT22;2042;47.956;9.222;2023-03-01T19:31:07;0.70;1.00
4054;DHT22;2042;47.956;9.222;2023-03-01T19:33:34;0.70;1.00
4054;DHT22;2042;47.956;9.222;2023-03-01T19:36:00;0.70;1.00
4054;DHT22;2042;47.956;9.222;2023-03-01T19:38:27;0.70;1.00
4054;DHT22;2042;47.956;9.222;2023-03-01T19:40:54;0.60;1.00
4054;DHT22;2042;47.956;9.222;2023-03-01T19:43:21;0.60;1.00
4054;DHT22;2042;47.956;9.222;2023-03-01T19:45:53;0.60;1.00
4054;DHT22;2042;47.956;9.222;2023-03-01T19:48:20;0.60;1.00
4054;DHT22;2042;47.956;9.222;2023-03-01T19:50:46;0.60;1.00
4054;DHT22;2042;47.956;9.222;2023-03-01T19:53:13;0.60;1.00
4054;DHT22;2042;47.956;9.222;2023-03-01T19:55:39;0.60;1.00
4054;DHT22;2042;47.956;9.222;2023-03-01T19:58:06;0.60;1.00
4054;DHT22;2042;47.956;9.222;2023-03-01T20:00:33;0.60;1.00
4054;DHT22;2042;47.956;9.222;2023-03-01T20:02:59;0.60;1.00
4054;DHT22;2042;47.956;9.222;2023-03-01T20:05:25;0.60;1.00
4054;DHT22;2042;47.956;9.222;2023-03-01T20:07:53;0.60;1.00
4054;DHT22;2042;47.956;9.222;2023-03-01T20:10:24;0.70;1.00
4054;DHT22;2042;47.956;9.222;2023-03-01T20:12:54;0.70;1.00
4054;DHT22;2042;47.956;9.222;2023-03-01T20:15:20;0.70;1.00
4054;DHT22;2042;47.956;9.222;2023-03-01T20:17:46;0.60;1.00
4054;DHT22;2042;47.956;9.222;2023-03-01T20:20:12;0.60;1.00
4054;DHT22;2042;47.956;9.222;2023-03-01T20:22:38;0.60;1.00
4054;DHT22;2042;47.956;9.222;2023-03-01T20:25:04;0.60;1.00
4054;DHT22;2042;47.956;9.222;2023-03-01T20:27:30;0.60;1.00
4054;DHT22;2042;47.956;9.222;2023-03-01T20:29:56;0.60;1.00
4054;DHT22;2042;47.956;9.222;2023-03-01T20:32:22;0.60;1.00
4054;DHT22;2042;47.956;9.222;2023-03-01T20:34:48;0.60;1.00
4054;DHT22;2042;47.956;9.222;2023-03-01T20:37:13;0.60;1.00
4054;DHT22;2042;47.956;9.222;2023-03-01T20:39:39;0.60;1.00
4054;DHT22;2042;47.956;9.222;2023-03-01T20:42:05;0.60;1.00
4054;DHT22;2042;47.956;9.222;2023-03-01T20:44:32;0.60;1.00
4054;DHT22;2042;47.956;9.222;2023-03-01T20:46:59;0.50;1.00
4054;DHT22;2042;47.956;9.222;2023-03-01T20:49:25;0.50;1.00
4054;DHT22;2042;47.956;9.222;2023-03-01T20:51:51;0.50;1.00
4054;DHT22;2042;47.956;9.222;2023-03-01T20:54:17;0.60;1.00
4054;DHT22;2042;47.956;9.222;2023-03-01T20:56:42;0.60;2.30
4054;DHT22;2042;47.956;9.222;2023-03-01T20:59:11;0.60;1.60
4054;DHT22;2042;47.956;9.222;2023-03-01T21:01:37;0.80;1.00
4054;DHT22;2042;47.956;9.222;2023-03-01T21:04:04;0.80;1.00
4054;DHT22;2042;47.956;9.222;2023-03-01T21:06:30;0.90;1.00
4054;DHT22;2042;47.956;9.222;2023-03-01T21:08:56;1.00;1.00
4054;DHT22;2042;47.956;9.222;2023-03-01T21:11:22;1.10;1.00
4054;DHT22;2042;47.956;9.222;2023-03-01T21:13:51;1.10;1.00
4054;DHT22;2042;47.956;9.222;2023-03-01T21:16:16;1.20;1.00
4054;DHT22;2042;47.956;9.222;2023-03-01T21:18:43;1.30;1.00
4054;DHT22;2042;47.956;9.222;2023-03-01T21:21:11;1.30;1.00
4054;DHT22;2042;47.956;9.222;2023-03-01T21:23:38;1.40;1.00
4054;DHT22;2042;47.956;9.222;2023-03-01T21:26:23;1.40;1.00
4054;DHT22;2042;47.956;9.222;2023-03-01T21:28:56;1.50;1.00
4054;DHT22;2042;47.956;9.222;2023-03-01T21:31:26;1.50;1.00
4054;DHT22;2042;47.956;9.222;2023-03-01T21:33:55;1.50;1.00
4054;DHT22;2042;47.956;9.222;2023-03-01T21:36:23;1.60;1.00
4054;DHT22;2042;47.956;9.222;2023-03-01T21:38:49;1.60;1.00
4054;DHT22;2042;47.956;9.222;2023-03-01T21:41:21;1.60;1.00
4054;DHT22;2042;47.956;9.222;2023-03-01T21:43:49;1.60;1.00
4054;DHT22;2042;47.956;9.222;2023-03-01T21:46:19;1.60;1.00
4054;DHT22;2042;47.956;9.222;2023-03-01T21:48:45;1.60;1.00
4054;DHT22;2042;47.956;9.222;2023-03-01T21:51:13;1.60;1.00
4054;DHT22;2042;47.956;9.222;2023-03-01T21:53:40;1.70;1.00
4054;DHT22;2042;47.956;9.222;2023-03-01T21:56:06;1.70;1.00
4054;DHT22;2042;47.956;9.222;2023-03-01T21:58:32;1.70;1.00
4054;DHT22;2042;47.956;9.222;2023-03-01T22:01:09;1.70;1.00
4054;DHT22;2042;47.956;9.222;2023-03-01T22:03:35;1.70;1.00
4054;DHT22;2042;47.956;9.222;2023-03-01T22:06:15;1.70;1.00
4054;DHT22;2042;47.956;9.222;2023-03-01T22:08:56;1.80;1.00
4054;DHT22;2042;47.956;9.222;2023-03-01T22:11:22;1.80;1.00
4054;DHT22;2042;47.956;9.222;2023-03-01T22:13:51;1.70;1.00
4054;DHT22;2042;47.956;9.222;2023-03-01T22:16:19;1.80;1.00
4054;DHT22;2042;47.956;9.222;2023-03-01T22:18:45;1.80;1.00
4054;DHT22;2042;47.956;9.222;2023-03-01T22:21:11;1.70;1.00
4054;DHT22;2042;47.956;9.222;2023-03-01T22:23:38;1.70;1.00
4054;DHT22;2042;47.956;9.222;2023-03-01T22:26:04;1.70;1.00
4054;DHT22;2042;47.956;9.222;2023-03-01T22:28:30;1.70;1.00
4054;DHT22;2042;47.956;9.222;2023-03-01T22:30:56;1.70;1.00
4054;DHT22;2042;47.956;9.222;2023-03-01T22:33:22;1.70;1.00
4054;DHT22;2042;47.956;9.222;2023-03-01T22:35:48;1.70;1.00
4054;DHT22;2042;47.956;9.222;2023-03-01T22:38:14;1.70;1.00
4054;DHT22;2042;47.956;9.222;2023-03-01T22:40:39;1.70;1.00
4054;DHT22;2042;47.956;9.222;2023-03-01T22:43:05;1.60;1.00
4054;DHT22;2042;47.956;9.222;2023-03-01T22:45:31;1.60;1.00
4054;DHT22;2042;47.956;9.222;2023-03-01T22:48:00;1.60;1.00
4054;DHT22;2042;47.956;9.222;2023-03-01T22:50:27;1.60;1.00
4054;DHT22;2042;47.956;9.222;2023-03-01T22:52:53;1.60;1.00
4054;DHT22;2042;47.956;9.222;2023-03-01T22:55:19;1.60;1.00
4054;DHT22;2042;47.956;9.222;2023-03-01T22:57:49;1.50;1.00
4054;DHT22;2042;47.956;9.222;2023-03-01T23:00:15;1.50;1.00
4054;DHT22;2042;47.956;9.222;2023-03-01T23:02:41;1.50;1.00
4054;DHT22;2042;47.956;9.222;2023-03-01T23:05:08;1.50;1.00
4054;DHT22;2042;47.956;9.222;2023-03-01T23:07:33;1.50;1.00
4054;DHT22;2042;47.956;9.222;2023-03-01T23:09:59;1.50;1.00
4054;DHT22;2042;47.956;9.222;2023-03-01T23:12:30;1.40;1.00
4054;DHT22;2042;47.956;9.222;2023-03-01T23:14:56;1.40;1.00
4054;DHT22;2042;47.956;9.222;2023-03-01T23:17:22;1.40;1.00
4054;DHT22;2042;47.956;9.222;2023-03-01T23:19:48;1.40;1.00
4054;DHT22;2042;47.956;9.222;2023-03-01T23:22:18;1.40;1.00
4054;DHT22;2042;47.956;9.222;2023-03-01T23:24:44;1.40;1.00
4054;DHT22;2042;47.956;9.222;2023-03-01T23:27:10;1.30;1.00
4054;DHT22;2042;47.956;9.222;2023-03-01T23:29:40;1.30;1.00
4054;DHT22;2042;47.956;9.222;2023-03-01T23:32:07;1.30;1.00
4054;DHT22;2042;47.956;9.222;2023-03-01T23:34:33;1.30;1.00